Time;durP1;ratioP1;P1;durP2;ratioP2;P2;SDS_P1;SDS_P2;PMS_P1;PMS_P2;Temp;Humidity;BMP_temperature;BMP_pressure;BME280_temperature;BME280_humidity;BME280_pressure;Samples;Min_cycle;Max_cycle;Signal;HPM_P1;HPM_P2
2020/12/20 00:01:50;;;;;;;21.65;10.95;;;10.80;99.90;;;;;;5097351;28;20890;-75
2020/12/20 00:04:21;;;;;;;23.08;10.90;;;10.80;99.90;;;;;;5094595;28;20511;-75
2020/12/20 00:06:47;;;;;;;23.05;10.23;;;10.80;99.90;;;;;;5096173;28;20420;-76
2020/12/20 00:09:16;;;;;;;27.33;11.18;;;10.80;99.90;;;;;;5096188;28;20421;-77
2020/12/20 00:11:44;;;;;;;20.67;10.27;;;10.80;99.90;;;;;;5075964;28;20438;-77
2020/12/20 00:14:30;;;;;;;22.92;10.55;;;10.80;99.90;;;;;;5094054;28;20917;-77
2020/12/20 00:16:59;;;;;;;23.75;10.55;;;10.80;99.90;;;;;;5107852;28;20412;-77
2020/12/20 00:19:26;;;;;;;23.58;10.75;;;10.80;99.90;;;;;;5080011;28;20600;-77
2020/12/20 00:21:58;;;;;;;22.92;10.75;;;10.80;99.90;;;;;;5101199;28;20405;-76
2020/12/20 00:24:24;;;;;;;24.75;10.55;;;10.80;99.90;;;;;;5103131;28;20435;-76
2020/12/20 00:26:51;;;;;;;24.38;10.35;;;10.80;99.90;;;;;;5106616;28;20919;-77
2020/12/20 00:29:17;;;;;;;22.00;10.38;;;10.80;99.90;;;;;;5102478;28;20426;-77
2020/12/20 00:31:44;;;;;;;22.35;10.05;;;10.80;99.90;;;;;;5099501;28;20424;-76
2020/12/20 00:34:12;;;;;;;23.95;10.60;;;10.80;99.90;;;;;;5090932;28;20465;-76
2020/12/20 00:36:42;;;;;;;23.55;10.77;;;10.80;99.90;;;;;;5089602;28;20413;-76
2020/12/20 00:39:13;;;;;;;22.60;10.27;;;10.80;99.90;;;;;;5093003;28;20866;-77
2020/12/20 00:41:50;;;;;;;23.50;10.07;;;10.80;99.90;;;;;;5109972;28;20523;-75
2020/12/20 00:44:16;;;;;;;21.55;10.05;;;10.80;99.90;;;;;;5095585;28;20853;-75
2020/12/20 00:46:45;;;;;;;24.00;10.13;;;10.80;99.90;;;;;;5108441;28;20510;-76
2020/12/20 00:49:11;;;;;;;24.07;10.33;;;10.80;99.90;;;;;;5104124;28;20784;-76
2020/12/20 00:51:38;;;;;;;28.02;10.13;;;10.80;99.90;;;;;;5097852;28;20893;-75
2020/12/20 00:54:06;;;;;;;19.45;9.30;;;10.80;99.90;;;;;;5074431;28;20420;-77
2020/12/20 00:56:34;;;;;;;22.90;10.25;;;10.80;99.90;;;;;;5092437;28;20415;-77
2020/12/20 00:59:01;;;;;;;25.20;9.65;;;10.80;99.90;;;;;;5104153;28;20432;-76
2020/12/20 01:01:27;;;;;;;22.83;9.63;;;10.80;99.90;;;;;;5078576;28;20412;-76
2020/12/20 01:03:57;;;;;;;21.45;9.50;;;10.80;99.90;;;;;;5077177;28;20493;-76
2020/12/20 01:06:24;;;;;;;22.98;9.85;;;10.80;99.90;;;;;;5098656;28;20429;-76
2020/12/20 01:09:01;;;;;;;24.08;9.80;;;10.80;99.90;;;;;;5071097;28;20457;-76
2020/12/20 01:11:31;;;;;;;22.25;10.10;;;10.80;99.90;;;;;;5080482;28;20431;-77
2020/12/20 01:14:03;;;;;;;20.75;10.00;;;10.90;99.90;;;;;;5082226;28;20418;-76
2020/12/20 01:16:32;;;;;;;21.55;10.27;;;10.80;99.90;;;;;;5077130;28;20410;-77
2020/12/20 01:19:01;;;;;;;21.48;10.25;;;10.80;99.90;;;;;;5074317;28;20514;-77
2020/12/20 01:21:28;;;;;;;24.20;10.68;;;10.80;99.90;;;;;;5088643;28;20412;-76
2020/12/20 01:23:56;;;;;;;23.85;10.90;;;10.80;99.90;;;;;;5090876;28;20416;-76
2020/12/20 01:26:28;;;;;;;22.38;11.18;;;10.80;99.90;;;;;;5090925;28;20423;-76
2020/12/20 01:28:56;;;;;;;22.23;11.85;;;10.80;99.90;;;;;;5077946;28;20512;-76
2020/12/20 01:31:25;;;;;;;21.83;11.18;;;10.70;99.90;;;;;;5086104;28;20479;-76
2020/12/20 01:34:05;;;;;;;25.90;11.60;;;10.70;99.90;;;;;;5088818;28;20421;-75
2020/12/20 01:36:32;;;;;;;25.05;11.15;;;10.80;99.90;;;;;;5098236;28;20488;-79
2020/12/20 01:39:02;;;;;;;24.10;11.02;;;10.80;99.90;;;;;;5076531;28;20456;-77
2020/12/20 01:41:33;;;;;;;21.08;11.07;;;10.70;99.90;;;;;;5088768;28;20412;-77
2020/12/20 01:44:03;;;;;;;26.33;10.97;;;10.70;99.90;;;;;;5093618;28;20426;-75
2020/12/20 01:46:44;;;;;;;26.33;11.52;;;10.70;99.90;;;;;;5089271;28;20424;-76
2020/12/20 01:49:16;;;;;;;25.58;11.40;;;10.80;99.90;;;;;;5082056;28;20414;-76
2020/12/20 01:51:43;;;;;;;26.52;11.13;;;10.70;99.90;;;;;;5082270;28;20423;-77
2020/12/20 01:54:13;;;;;;;22.33;10.75;;;10.80;99.90;;;;;;5082934;28;20424;-77
2020/12/20 01:56:49;;;;;;;23.53;10.97;;;10.80;99.90;;;;;;5075869;28;20809;-76
2020/12/20 01:59:27;;;;;;;23.77;11.10;;;10.80;99.90;;;;;;5077819;28;20441;-76
2020/12/20 02:01:59;;;;;;;26.75;10.90;;;10.80;99.90;;;;;;5084189;28;20412;-76
2020/12/20 02:04:35;;;;;;;25.93;11.20;;;10.80;99.90;;;;;;5080833;28;20429;-76
2020/12/20 02:07:02;;;;;;;27.27;10.65;;;10.80;99.90;;;;;;5092434;28;20493;-75
2020/12/20 02:09:29;;;;;;;25.88;10.70;;;10.90;99.90;;;;;;5093567;28;20494;-76
2020/12/20 02:12:04;;;;;;;23.50;10.52;;;10.90;99.90;;;;;;5081503;28;20780;-78
2020/12/20 02:14:35;;;;;;;28.27;11.23;;;10.90;99.90;;;;;;5081135;28;20421;-76
2020/12/20 02:17:05;;;;;;;24.35;10.98;;;10.90;99.90;;;;;;5087970;28;20424;-77
2020/12/20 02:19:36;;;;;;;26.67;11.15;;;10.90;99.90;;;;;;5080857;28;20414;-76
2020/12/20 02:22:43;;;;;;;24.57;10.70;;;10.90;99.90;;;;;;5102047;28;20488;-77
2020/12/20 02:25:10;;;;;;;24.52;10.55;;;10.90;99.90;;;;;;5089319;28;20412;-76
2020/12/20 02:27:53;;;;;;;23.05;10.93;;;10.90;99.90;;;;;;5082641;28;20923;-76
2020/12/20 02:30:24;;;;;;;24.08;10.40;;;10.90;99.90;;;;;;5076765;28;20422;-76
2020/12/20 02:32:53;;;;;;;22.17;10.48;;;10.90;99.90;;;;;;5108682;28;20419;-77
2020/12/20 02:35:22;;;;;;;21.93;10.27;;;10.90;99.90;;;;;;5082039;28;20782;-77
2020/12/20 02:37:55;;;;;;;23.83;10.13;;;10.90;99.90;;;;;;5088721;28;20511;-77
2020/12/20 02:40:21;;;;;;;24.08;10.18;;;10.90;99.90;;;;;;5103393;28;20420;-76
2020/12/20 02:43:01;;;;;;;24.48;9.93;;;10.90;99.90;;;;;;5088546;28;20422;-77
2020/12/20 02:45:28;;;;;;;21.27;9.48;;;11.00;99.90;;;;;;5081462;28;20424;-76
2020/12/20 02:47:55;;;;;;;24.03;9.80;;;10.90;99.90;;;;;;5081982;28;20465;-77
2020/12/20 02:50:23;;;;;;;24.88;10.25;;;10.90;99.90;;;;;;5074337;28;20426;-76
2020/12/20 02:52:49;;;;;;;20.67;9.75;;;11.00;99.90;;;;;;5087097;28;20822;-76
2020/12/20 02:55:16;;;;;;;22.08;9.30;;;11.00;99.90;;;;;;5086703;28;20741;-77
2020/12/20 02:57:50;;;;;;;21.75;9.27;;;11.00;99.90;;;;;;5075734;28;20429;-76
2020/12/20 03:00:36;;;;;;;27.35;10.05;;;11.00;99.90;;;;;;5108067;28;20534;-76
2020/12/20 03:03:04;;;;;;;22.67;9.10;;;11.00;99.90;;;;;;5103734;28;20393;-77
2020/12/20 03:05:31;;;;;;;21.52;9.23;;;11.00;99.90;;;;;;5103865;28;20828;-76
2020/12/20 03:07:59;;;;;;;26.73;9.50;;;11.00;99.90;;;;;;5091856;28;20436;-77
2020/12/20 03:10:28;;;;;;;24.88;9.73;;;11.00;99.90;;;;;;5080373;28;20490;-77
2020/12/20 03:12:55;;;;;;;22.15;8.88;;;11.00;99.90;;;;;;5093747;28;20422;-77
2020/12/20 03:15:23;;;;;;;24.48;9.73;;;11.00;99.90;;;;;;5091350;28;20450;-77
2020/12/20 03:17:52;;;;;;;24.35;9.32;;;11.00;99.90;;;;;;5088121;28;20497;-77
2020/12/20 03:20:19;;;;;;;25.05;9.35;;;11.00;99.90;;;;;;5074174;28;20417;-77
2020/12/20 03:22:46;;;;;;;20.95;9.23;;;11.00;99.90;;;;;;5075558;28;20513;-77
2020/12/20 03:25:43;;;;;;;24.85;9.27;;;11.00;99.90;;;;;;5078062;28;20430;-76
2020/12/20 03:28:38;;;;;;;21.92;9.68;;;11.00;99.90;;;;;;5108120;28;20489;-77
2020/12/20 03:31:37;;;;;;;23.65;9.40;;;11.00;99.90;;;;;;5073358;28;20415;-76
2020/12/20 03:34:09;;;;;;;24.23;9.18;;;11.00;99.90;;;;;;5086959;28;20436;-77
2020/12/20 03:36:48;;;;;;;23.48;8.82;;;11.00;99.90;;;;;;5085076;28;20506;-77
2020/12/20 03:39:19;;;;;;;24.65;8.45;;;11.00;99.90;;;;;;5078069;28;20934;-75
2020/12/20 03:41:47;;;;;;;22.67;8.85;;;11.00;99.90;;;;;;5086628;28;20405;-77
2020/12/20 03:44:19;;;;;;;26.57;8.37;;;10.90;99.90;;;;;;5082769;28;20421;-77
2020/12/20 03:46:46;;;;;;;24.10;8.02;;;10.90;99.90;;;;;;5080824;28;20433;-77
2020/12/20 03:49:13;;;;;;;26.00;8.43;;;10.90;99.90;;;;;;5081703;28;20761;-77
2020/12/20 03:51:44;;;;;;;23.43;7.93;;;10.90;99.90;;;;;;5087305;28;20511;-77
2020/12/20 03:54:12;;;;;;;28.45;8.50;;;10.90;99.90;;;;;;5084492;28;20975;-76
2020/12/20 03:56:42;;;;;;;22.98;7.70;;;10.90;99.90;;;;;;5081187;28;20460;-77
2020/12/20 03:59:16;;;;;;;23.77;7.97;;;10.90;99.90;;;;;;5083489;28;20423;-77
2020/12/20 04:01:43;;;;;;;26.67;8.50;;;10.90;99.90;;;;;;5092593;28;20426;-77
2020/12/20 04:04:10;;;;;;;26.73;7.95;;;10.90;99.90;;;;;;5079321;28;20512;-76
2020/12/20 04:06:45;;;;;;;28.15;8.25;;;10.90;99.90;;;;;;5082871;28;20439;-77
2020/12/20 04:09:12;;;;;;;20.15;8.13;;;10.80;99.90;;;;;;5098920;28;20475;-75
2020/12/20 04:11:59;;;;;;;26.77;8.15;;;10.80;99.90;;;;;;5095580;28;20418;-76
2020/12/20 04:14:30;;;;;;;26.15;8.52;;;10.80;99.90;;;;;;5088759;28;20416;-76
2020/12/20 04:16:56;;;;;;;23.20;8.43;;;10.80;99.90;;;;;;5088505;28;20425;-76
2020/12/20 04:19:24;;;;;;;25.27;8.63;;;10.80;99.90;;;;;;5087096;28;20420;-76
2020/12/20 04:21:58;;;;;;;25.50;8.13;;;10.80;99.90;;;;;;5081149;28;20414;-76
2020/12/20 04:25:02;;;;;;;27.20;8.32;;;10.80;99.90;;;;;;5020337;28;20465;-76
2020/12/20 04:27:40;;;;;;;26.83;8.68;;;10.70;99.90;;;;;;4995081;28;20433;-76
2020/12/20 04:30:08;;;;;;;28.38;8.88;;;10.70;99.90;;;;;;5044228;28;20475;-77
2020/12/20 04:32:36;;;;;;;28.73;9.38;;;10.70;99.90;;;;;;5071586;28;20828;-77
2020/12/20 04:35:02;;;;;;;25.17;8.47;;;10.70;99.90;;;;;;5089244;28;20420;-76
2020/12/20 04:37:29;;;;;;;26.13;8.20;;;10.70;99.90;;;;;;5091576;28;21361;-76
2020/12/20 04:40:04;;;;;;;23.10;8.13;;;10.60;99.90;;;;;;5090204;28;20520;-77
2020/12/20 04:42:39;;;;;;;26.55;8.88;;;10.60;99.90;;;;;;5074059;28;20426;-75
2020/12/20 04:45:06;;;;;;;25.90;8.80;;;10.60;99.90;;;;;;5077375;28;20424;-77
2020/12/20 04:47:40;;;;;;;28.55;9.30;;;10.60;99.90;;;;;;5091339;28;20416;-77
2020/12/20 04:50:12;;;;;;;28.95;8.45;;;10.60;99.90;;;;;;5072132;28;20437;-75
2020/12/20 04:52:40;;;;;;;32.40;9.00;;;10.60;99.90;;;;;;5076124;28;20767;-77
2020/12/20 04:55:08;;;;;;;26.27;8.48;;;10.50;99.90;;;;;;5075993;28;20431;-76
2020/12/20 04:57:54;;;;;;;28.13;8.80;;;10.50;99.90;;;;;;5097620;28;21120;-77
2020/12/20 05:00:25;;;;;;;29.90;8.90;;;10.50;99.90;;;;;;5077599;28;20764;-75
2020/12/20 05:02:53;;;;;;;28.10;8.80;;;10.60;99.90;;;;;;5073383;28;20412;-76
2020/12/20 05:05:20;;;;;;;30.20;9.10;;;10.60;99.90;;;;;;5071778;28;20422;-75
2020/12/20 05:07:47;;;;;;;25.90;9.10;;;10.50;99.90;;;;;;5082168;28;20467;-75
2020/12/20 05:10:18;;;;;;;28.05;8.50;;;10.50;99.90;;;;;;5082468;28;20436;-76
2020/12/20 05:12:47;;;;;;;29.38;8.68;;;10.50;99.90;;;;;;5081169;28;20460;-77
2020/12/20 05:15:24;;;;;;;32.00;9.35;;;10.50;99.90;;;;;;5071969;28;20471;-75
2020/12/20 05:18:10;;;;;;;29.10;9.25;;;10.50;99.90;;;;;;5080703;28;20428;-76
2020/12/20 05:20:45;;;;;;;33.08;9.10;;;10.50;99.90;;;;;;5102858;28;20880;-76
2020/12/20 05:23:16;;;;;;;27.95;8.88;;;10.50;99.90;;;;;;5075438;28;20978;-76
2020/12/20 05:25:44;;;;;;;32.42;9.63;;;10.50;99.90;;;;;;5080252;28;20484;-76
2020/12/20 05:31:08;;;;;;;30.00;9.63;;;10.50;99.90;;;;;;5270884;22;20434;-77
2020/12/20 05:40:25;;;;;;;35.40;10.00;;;10.50;99.90;;;;;;4877096;29;20417;-75
2020/12/20 05:43:02;;;;;;;31.27;9.43;;;10.40;99.90;;;;;;4858431;29;20804;-77
2020/12/20 05:45:31;;;;;;;27.52;9.30;;;10.40;99.90;;;;;;4849570;29;20874;-77
2020/12/20 05:48:14;;;;;;;25.92;9.82;;;10.40;99.90;;;;;;4872013;29;20436;-73
2020/12/20 05:50:52;;;;;;;28.08;9.65;;;10.40;99.90;;;;;;4857891;29;20436;-78
2020/12/20 05:53:23;;;;;;;24.17;9.00;;;10.40;99.90;;;;;;4873269;29;20440;-75
2020/12/20 05:55:51;;;;;;;29.88;9.35;;;10.30;99.90;;;;;;4873422;29;20436;-75
2020/12/20 05:58:18;;;;;;;30.38;9.27;;;10.30;99.90;;;;;;4872853;29;20536;-76
2020/12/20 06:00:45;;;;;;;32.22;9.35;;;10.40;99.90;;;;;;4873646;29;20431;-77
2020/12/20 06:03:12;;;;;;;32.47;9.53;;;10.30;99.90;;;;;;4872969;29;20480;-76
2020/12/20 06:05:40;;;;;;;28.50;9.60;;;10.30;99.90;;;;;;4873105;29;20441;-76
2020/12/20 06:08:08;;;;;;;25.38;9.55;;;10.30;99.90;;;;;;4863387;29;20526;-76
2020/12/20 06:10:38;;;;;;;32.63;9.48;;;10.30;99.90;;;;;;4873492;29;20989;-81
2020/12/20 06:13:07;;;;;;;26.58;9.50;;;10.30;99.90;;;;;;4873505;29;20573;-76
2020/12/20 06:15:37;;;;;;;28.55;9.88;;;10.30;99.90;;;;;;4875657;29;20620;-77
2020/12/20 06:18:09;;;;;;;29.38;9.65;;;10.30;99.90;;;;;;4916272;28;20433;-76
2020/12/20 06:20:51;;;;;;;27.70;9.82;;;10.30;99.90;;;;;;4974227;28;20436;-76
2020/12/20 06:23:23;;;;;;;26.57;9.83;;;10.30;99.90;;;;;;4972446;28;21166;-77
2020/12/20 06:25:51;;;;;;;26.70;9.80;;;10.20;99.90;;;;;;4955700;28;21015;-77
2020/12/20 06:28:22;;;;;;;26.10;10.20;;;10.20;99.90;;;;;;4972855;28;20419;-77
2020/12/20 06:30:49;;;;;;;24.40;10.00;;;10.20;99.90;;;;;;4972924;28;20423;-77
2020/12/20 06:33:36;;;;;;;30.27;10.15;;;10.20;99.90;;;;;;4955337;28;20442;-76
2020/12/20 06:36:07;;;;;;;27.10;9.93;;;10.20;99.90;;;;;;4961474;28;20791;-81
2020/12/20 06:38:34;;;;;;;30.05;10.10;;;10.20;99.90;;;;;;4958026;28;20421;-77
2020/12/20 06:41:01;;;;;;;29.37;10.50;;;10.20;99.90;;;;;;4953471;28;20437;-75
2020/12/20 06:43:30;;;;;;;34.10;10.43;;;10.20;99.90;;;;;;4953229;28;20425;-76
2020/12/20 06:45:57;;;;;;;33.20;10.80;;;10.20;99.90;;;;;;4950711;28;20643;-76
2020/12/20 06:48:36;;;;;;;30.80;10.40;;;10.20;99.90;;;;;;4954384;28;20432;-77
2020/12/20 06:51:04;;;;;;;29.90;10.30;;;10.20;99.90;;;;;;4969759;28;20439;-75
2020/12/20 06:53:52;;;;;;;28.00;11.02;;;10.20;99.90;;;;;;4970043;28;20484;-76
2020/12/20 06:56:21;;;;;;;26.35;10.07;;;10.20;99.90;;;;;;4954288;28;20447;-76
2020/12/20 06:58:49;;;;;;;33.95;10.68;;;10.20;99.90;;;;;;4953114;28;20457;-74
2020/12/20 07:01:42;;;;;;;29.23;10.25;;;10.20;99.90;;;;;;4958084;28;20413;-76
2020/12/20 07:04:14;;;;;;;27.42;10.65;;;10.20;99.90;;;;;;4926143;28;20468;-76
2020/12/20 07:06:40;;;;;;;26.23;10.80;;;10.20;99.90;;;;;;4957909;28;20489;-77
2020/12/20 07:09:07;;;;;;;29.48;11.00;;;10.10;99.90;;;;;;4967671;28;20429;-75
2020/12/20 07:11:41;;;;;;;36.28;11.15;;;10.10;99.90;;;;;;4972029;28;20919;-75
2020/12/20 07:14:20;;;;;;;26.83;11.30;;;10.10;99.90;;;;;;4969528;28;20447;-78
2020/12/20 07:16:47;;;;;;;25.95;11.48;;;10.10;99.90;;;;;;4959339;28;20547;-78
2020/12/20 07:19:23;;;;;;;30.87;11.40;;;10.10;99.90;;;;;;4962364;28;20420;-77
2020/12/20 07:22:07;;;;;;;35.97;11.90;;;10.10;99.90;;;;;;4959436;28;20484;-77
2020/12/20 07:24:36;;;;;;;31.15;11.65;;;10.10;99.90;;;;;;4964464;28;20441;-76
2020/12/20 07:27:05;;;;;;;34.10;11.52;;;10.00;99.90;;;;;;4965935;28;20436;-78
2020/12/20 07:29:33;;;;;;;36.78;12.82;;;10.10;99.90;;;;;;4963361;28;20925;-78
2020/12/20 07:32:07;;;;;;;29.02;11.60;;;10.00;99.90;;;;;;4957086;28;20445;-79
2020/12/20 07:34:34;;;;;;;33.60;11.85;;;10.10;99.90;;;;;;4962093;28;20434;-78
2020/12/20 07:37:03;;;;;;;30.88;11.40;;;10.00;99.90;;;;;;4971375;28;20428;-81
2020/12/20 07:39:29;;;;;;;30.58;11.35;;;10.00;99.90;;;;;;4970389;28;20424;-77
2020/12/20 07:41:59;;;;;;;30.55;11.70;;;10.00;99.90;;;;;;4958279;28;20486;-74
2020/12/20 07:44:35;;;;;;;35.67;11.93;;;10.00;99.90;;;;;;4971105;28;20779;-76
2020/12/20 07:47:11;;;;;;;31.03;11.70;;;10.00;99.90;;;;;;4954419;28;20510;-73
2020/12/20 07:49:38;;;;;;;27.52;10.88;;;10.00;99.90;;;;;;4952761;28;20434;-77
2020/12/20 07:52:08;;;;;;;35.03;11.57;;;10.00;99.90;;;;;;4971076;28;20431;-77
2020/12/20 07:54:35;;;;;;;33.45;10.65;;;10.00;99.90;;;;;;4953721;28;20427;-75
2020/12/20 07:57:05;;;;;;;32.33;11.00;;;10.00;99.90;;;;;;4971746;28;20420;-75
2020/12/20 07:59:32;;;;;;;29.20;10.68;;;10.00;99.90;;;;;;4951708;28;20783;-75
2020/12/20 08:01:59;;;;;;;28.65;10.13;;;10.10;99.90;;;;;;4971134;28;20918;-76
2020/12/20 08:04:25;;;;;;;36.38;10.55;;;10.00;99.90;;;;;;4970414;28;20514;-77
2020/12/20 08:06:53;;;;;;;31.05;9.40;;;10.10;99.90;;;;;;4966858;28;20501;-75
2020/12/20 08:09:20;;;;;;;29.77;9.48;;;10.10;99.90;;;;;;4954709;28;20856;-77
2020/12/20 08:11:47;;;;;;;31.58;9.23;;;10.10;99.90;;;;;;4959520;28;20454;-73
2020/12/20 08:14:16;;;;;;;26.77;9.13;;;10.10;99.90;;;;;;4951171;28;20530;-76
2020/12/20 08:16:43;;;;;;;33.50;9.82;;;10.10;99.90;;;;;;4961065;28;20508;-76
2020/12/20 08:19:16;;;;;;;29.67;9.02;;;10.10;99.90;;;;;;4960631;28;20434;-75
2020/12/20 08:21:57;;;;;;;35.95;9.75;;;10.10;99.90;;;;;;4965432;28;20439;-75
2020/12/20 08:24:32;;;;;;;35.80;9.10;;;10.10;99.90;;;;;;4962447;28;20550;-76
2020/12/20 08:26:59;;;;;;;28.42;8.30;;;10.20;99.90;;;;;;4966626;28;20655;-79
2020/12/20 08:29:25;;;;;;;27.55;9.30;;;10.20;99.90;;;;;;4961591;28;20446;-77
2020/12/20 08:31:52;;;;;;;31.58;8.48;;;10.20;99.90;;;;;;4962571;28;20775;-76
2020/12/20 08:34:21;;;;;;;33.55;9.70;;;10.30;99.90;;;;;;4967091;28;20868;-76
2020/12/20 08:36:50;;;;;;;29.88;8.93;;;10.30;99.90;;;;;;4968702;28;20515;-79
2020/12/20 08:39:16;;;;;;;29.25;8.60;;;10.30;99.90;;;;;;4962699;28;20444;-79
2020/12/20 08:41:43;;;;;;;29.40;8.40;;;10.30;99.90;;;;;;4949613;28;20434;-77
2020/12/20 08:44:12;;;;;;;32.15;8.52;;;10.30;99.90;;;;;;4962023;28;20586;-77
2020/12/20 08:46:40;;;;;;;34.53;8.43;;;10.30;99.90;;;;;;4962805;28;20801;-77
2020/12/20 08:49:12;;;;;;;32.80;8.43;;;10.30;99.90;;;;;;4947755;28;20436;-76
2020/12/20 08:51:39;;;;;;;35.45;8.65;;;10.30;99.90;;;;;;4963983;28;20429;-78
2020/12/20 08:54:05;;;;;;;25.73;8.17;;;10.20;99.90;;;;;;4955518;28;20433;-77
2020/12/20 08:56:31;;;;;;;30.52;8.70;;;10.30;99.90;;;;;;4962533;28;20445;-77
2020/12/20 08:58:59;;;;;;;34.92;8.73;;;10.30;99.90;;;;;;4965871;28;20437;-76
2020/12/20 09:01:26;;;;;;;29.73;8.07;;;10.30;99.90;;;;;;4970619;28;20428;-77
2020/12/20 09:03:53;;;;;;;34.42;8.45;;;10.30;99.90;;;;;;4969972;28;20516;-75
2020/12/20 09:06:20;;;;;;;31.77;8.98;;;10.40;99.90;;;;;;4964897;28;20437;-76
2020/12/20 09:08:47;;;;;;;32.23;8.23;;;10.40;99.90;;;;;;4955613;28;20511;-77
2020/12/20 09:11:24;;;;;;;28.83;8.18;;;10.40;99.90;;;;;;4970707;28;20515;-77
2020/12/20 09:13:51;;;;;;;34.95;7.90;;;10.40;99.90;;;;;;4954564;28;20537;-77
2020/12/20 09:16:17;;;;;;;31.07;8.33;;;10.40;99.90;;;;;;4951844;28;20790;-75
2020/12/20 09:18:44;;;;;;;28.75;7.45;;;10.40;99.90;;;;;;4959146;28;20910;-78
2020/12/20 09:21:10;;;;;;;29.60;7.25;;;10.50;99.90;;;;;;4965526;28;20416;-78
2020/12/20 09:23:36;;;;;;;31.48;8.13;;;10.50;99.90;;;;;;4967340;28;20435;-77
2020/12/20 09:26:05;;;;;;;34.17;8.55;;;10.50;99.90;;;;;;4959928;28;20842;-78
2020/12/20 09:28:33;;;;;;;27.38;7.88;;;10.50;99.90;;;;;;4965004;28;20438;-79
2020/12/20 09:31:01;;;;;;;25.27;7.35;;;10.60;99.90;;;;;;4960274;28;20430;-80
2020/12/20 09:33:28;;;;;;;29.10;7.63;;;10.60;99.90;;;;;;4962333;28;20463;-80
2020/12/20 09:36:00;;;;;;;23.73;7.43;;;10.60;99.90;;;;;;4961637;28;20896;-81
2020/12/20 09:38:29;;;;;;;30.67;7.57;;;10.60;99.90;;;;;;4964076;28;20876;-79
2020/12/20 09:41:00;;;;;;;30.38;7.53;;;10.60;99.90;;;;;;4960397;28;20430;-79
2020/12/20 09:43:28;;;;;;;26.43;6.70;;;10.60;99.90;;;;;;4949524;28;20475;-79
2020/12/20 09:45:54;;;;;;;32.45;7.38;;;10.60;99.90;;;;;;4965423;28;20447;-77
2020/12/20 09:48:20;;;;;;;31.50;7.50;;;10.60;99.90;;;;;;4959985;28;20444;-79
2020/12/20 09:50:47;;;;;;;29.13;7.55;;;10.70;99.90;;;;;;4956276;28;20816;-77
2020/12/20 09:53:13;;;;;;;27.33;7.47;;;10.60;99.90;;;;;;4959907;28;20433;-78
2020/12/20 09:55:42;;;;;;;28.60;7.10;;;10.70;99.90;;;;;;4954323;28;20474;-78
2020/12/20 09:58:12;;;;;;;27.92;6.97;;;10.70;99.90;;;;;;4963282;28;20962;-78
2020/12/20 10:00:39;;;;;;;31.13;7.93;;;10.70;99.90;;;;;;4958612;28;20429;-79
2020/12/20 10:03:06;;;;;;;30.77;7.00;;;10.70;99.90;;;;;;4968830;28;20431;-78
2020/12/20 10:05:32;;;;;;;26.52;7.00;;;10.70;99.90;;;;;;4968258;28;20429;-78
2020/12/20 10:07:59;;;;;;;30.17;6.95;;;10.70;99.90;;;;;;4959320;28;20452;-75
2020/12/20 10:10:26;;;;;;;27.38;7.30;;;10.70;99.90;;;;;;4968704;28;20419;-80
2020/12/20 10:12:52;;;;;;;37.17;7.43;;;10.70;99.90;;;;;;4977080;28;20432;-79
2020/12/20 10:15:19;;;;;;;29.63;7.13;;;10.70;99.90;;;;;;4975834;28;20918;-80
2020/12/20 10:17:46;;;;;;;31.48;7.57;;;10.70;99.90;;;;;;4973300;28;20508;-80
2020/12/20 10:20:13;;;;;;;25.23;6.95;;;10.70;99.90;;;;;;4974737;28;20470;-79
2020/12/20 10:22:39;;;;;;;28.23;7.10;;;10.70;99.90;;;;;;4965712;28;20433;-77
2020/12/20 10:25:06;;;;;;;28.70;7.00;;;10.70;99.90;;;;;;4963222;28;20421;-79
2020/12/20 10:27:32;;;;;;;27.00;7.20;;;10.70;99.90;;;;;;4964554;28;20435;-79
2020/12/20 10:29:59;;;;;;;31.05;7.50;;;10.70;99.90;;;;;;4972208;28;20428;-78
2020/12/20 10:32:25;;;;;;;23.40;7.13;;;10.70;99.90;;;;;;4956055;28;20431;-77
2020/12/20 10:34:52;;;;;;;27.30;7.45;;;10.80;99.90;;;;;;4963303;28;20463;-79
2020/12/20 10:37:19;;;;;;;27.13;7.40;;;10.80;99.90;;;;;;4960130;28;20458;-77
2020/12/20 10:39:45;;;;;;;27.35;7.25;;;10.90;99.90;;;;;;4962792;28;20939;-77
2020/12/20 10:42:13;;;;;;;30.70;7.07;;;10.90;99.90;;;;;;4965085;28;20421;-78
2020/12/20 10:44:40;;;;;;;27.08;6.60;;;10.90;99.90;;;;;;4956607;28;20464;-78
2020/12/20 10:47:06;;;;;;;28.63;7.22;;;11.00;99.90;;;;;;4966634;28;20455;-78
2020/12/20 10:49:33;;;;;;;27.83;6.40;;;11.00;99.90;;;;;;4964354;28;20925;-77
2020/12/20 10:52:00;;;;;;;29.03;6.70;;;11.10;99.90;;;;;;4966721;28;20440;-77
2020/12/20 10:54:29;;;;;;;27.35;7.03;;;11.10;99.90;;;;;;4970587;28;20463;-78
2020/12/20 10:56:58;;;;;;;24.10;6.80;;;11.10;99.90;;;;;;4968747;28;20434;-78
2020/12/20 10:59:26;;;;;;;30.45;6.80;;;11.20;99.90;;;;;;4963281;28;20496;-77
2020/12/20 11:01:52;;;;;;;24.38;6.20;;;11.20;99.90;;;;;;4963354;28;20498;-77
2020/12/20 11:04:18;;;;;;;25.25;6.88;;;11.20;99.90;;;;;;4960032;28;20482;-79
2020/12/20 11:06:45;;;;;;;30.60;7.18;;;11.30;99.90;;;;;;4960102;28;20435;-76
2020/12/20 11:09:12;;;;;;;32.35;7.03;;;11.30;99.90;;;;;;4963146;28;20438;-77
2020/12/20 11:11:39;;;;;;;27.45;7.30;;;11.30;99.90;;;;;;4950958;28;20757;-80
2020/12/20 11:14:05;;;;;;;35.28;6.85;;;11.30;99.90;;;;;;4963613;28;20506;-79
2020/12/20 11:16:31;;;;;;;26.30;6.50;;;11.30;99.90;;;;;;4956180;28;20514;-81
2020/12/20 11:18:58;;;;;;;29.20;6.30;;;11.40;99.90;;;;;;4962593;28;20447;-78
2020/12/20 11:21:24;;;;;;;28.00;6.55;;;11.40;99.90;;;;;;4961283;28;20431;-77
2020/12/20 11:23:51;;;;;;;23.75;6.72;;;11.40;99.90;;;;;;4966097;28;20448;-79
2020/12/20 11:26:19;;;;;;;27.60;6.40;;;11.40;99.90;;;;;;4955989;28;20475;-77
2020/12/20 11:28:47;;;;;;;27.17;6.70;;;11.40;99.90;;;;;;4959467;28;20437;-78
2020/12/20 11:31:16;;;;;;;41.83;17.43;;;11.40;99.90;;;;;;4962285;28;20417;-80
2020/12/20 11:33:42;;;;;;;23.77;6.73;;;11.40;99.90;;;;;;4962862;28;20991;-78
2020/12/20 11:36:09;;;;;;;25.65;6.40;;;11.50;99.90;;;;;;4964782;28;20449;-80
2020/12/20 11:38:36;;;;;;;27.20;6.53;;;11.50;99.90;;;;;;4969007;28;20796;-79
2020/12/20 11:41:04;;;;;;;26.25;6.47;;;11.60;99.90;;;;;;4952576;28;20451;-80
2020/12/20 11:43:31;;;;;;;25.15;7.00;;;11.60;99.90;;;;;;4970082;28;20424;-78
2020/12/20 11:46:01;;;;;;;24.38;6.95;;;11.70;99.90;;;;;;4971691;28;20848;-81
2020/12/20 11:48:27;;;;;;;22.63;7.20;;;11.70;99.90;;;;;;4969202;28;20435;-77
2020/12/20 11:50:54;;;;;;;27.50;7.68;;;11.80;99.90;;;;;;4956078;28;20423;-78
2020/12/20 11:53:20;;;;;;;27.92;7.30;;;11.80;99.90;;;;;;4960119;28;20494;-78
2020/12/20 11:55:46;;;;;;;26.23;7.33;;;11.80;99.90;;;;;;4959196;28;20482;-79
2020/12/20 11:58:13;;;;;;;24.45;7.35;;;11.90;99.90;;;;;;4966830;28;20792;-80
2020/12/20 12:00:45;;;;;;;27.80;7.43;;;11.80;99.90;;;;;;4963287;28;20438;-79
2020/12/20 12:03:14;;;;;;;25.35;7.40;;;11.90;99.90;;;;;;4966120;28;20494;-82
2020/12/20 12:05:42;;;;;;;27.00;8.30;;;11.90;99.90;;;;;;4954668;28;20479;-79
2020/12/20 12:08:10;;;;;;;30.97;8.87;;;11.90;99.90;;;;;;4959306;28;20449;-81
2020/12/20 12:10:40;;;;;;;27.33;8.82;;;11.90;99.80;;;;;;4962096;28;20441;-78
2020/12/20 12:13:07;;;;;;;22.92;8.10;;;11.90;99.70;;;;;;4951955;28;20432;-77
2020/12/20 12:15:33;;;;;;;26.15;9.02;;;12.00;99.70;;;;;;4971759;28;20423;-76
2020/12/20 12:18:00;;;;;;;28.02;8.88;;;12.00;99.80;;;;;;4966302;28;20490;-77
2020/12/20 12:20:27;;;;;;;27.23;9.70;;;12.00;99.70;;;;;;4959666;28;20421;-81
2020/12/20 12:22:55;;;;;;;29.80;9.60;;;12.00;99.70;;;;;;4961641;28;20912;-79
2020/12/20 12:25:21;;;;;;;31.85;10.65;;;12.10;99.50;;;;;;4954804;28;20444;-79
2020/12/20 12:27:47;;;;;;;26.45;8.65;;;12.00;99.60;;;;;;4962258;28;20779;-78
2020/12/20 12:30:14;;;;;;;31.85;9.60;;;12.00;99.40;;;;;;4960986;28;21221;-77
2020/12/20 12:32:40;;;;;;;33.23;9.17;;;12.10;99.50;;;;;;4969633;28;20437;-81
2020/12/20 12:35:08;;;;;;;30.10;8.75;;;12.10;99.20;;;;;;4977423;28;20821;-78
2020/12/20 12:37:35;;;;;;;25.92;8.60;;;12.10;99.20;;;;;;4971005;28;20434;-79
2020/12/20 12:40:04;;;;;;;28.75;9.43;;;12.10;99.20;;;;;;4967306;28;20421;-79
2020/12/20 12:42:30;;;;;;;30.42;9.43;;;12.10;99.00;;;;;;4961609;28;20796;-79
2020/12/20 12:44:57;;;;;;;29.52;8.77;;;12.10;98.90;;;;;;4958170;28;20434;-78
2020/12/20 12:47:23;;;;;;;26.92;9.13;;;12.10;99.00;;;;;;4962083;28;20457;-79
2020/12/20 12:49:50;;;;;;;27.58;9.15;;;12.10;99.00;;;;;;4964797;28;20766;-76
2020/12/20 12:52:17;;;;;;;25.48;8.50;;;12.10;98.90;;;;;;4967577;28;20951;-82
2020/12/20 12:54:43;;;;;;;28.85;9.23;;;12.10;99.00;;;;;;4956618;28;20485;-78
2020/12/20 12:57:10;;;;;;;27.45;9.65;;;12.10;98.80;;;;;;4976036;28;20752;-76